Time;durP1;ratioP1;P1;durP2;ratioP2;P2;SDS_P1;SDS_P2;PMS_P1;PMS_P2;Temp;Humidity;BMP_temperature;BMP_pressure;BME280_temperature;BME280_humidity;BME280_pressure;Samples;Min_cycle;Max_cycle;Signal;HPM_P1;HPM_P2
2021/10/15 00:02:21;;;;;;;17.77;13.00;;;12.90;86.70;;;;;;5037178;28;20176;-89
2021/10/15 00:04:47;;;;;;;22.10;13.30;;;12.90;86.70;;;;;;5036981;28;20179;-89
2021/10/15 00:07:12;;;;;;;20.80;11.70;;;12.90;86.80;;;;;;5055322;28;20594;-89
2021/10/15 00:09:38;;;;;;;15.50;11.67;;;12.90;86.80;;;;;;5037200;28;20196;-89
2021/10/15 00:12:04;;;;;;;18.60;13.67;;;12.80;86.80;;;;;;5055018;28;20172;-89
2021/10/15 00:14:30;;;;;;;16.37;11.60;;;12.80;86.80;;;;;;5036877;28;20180;-89
2021/10/15 00:16:55;;;;;;;16.40;12.33;;;12.80;86.90;;;;;;5036577;28;20195;-89
2021/10/15 00:19:21;;;;;;;25.50;15.53;;;12.80;86.80;;;;;;5037042;28;20200;-89
2021/10/15 00:21:47;;;;;;;19.03;13.20;;;12.80;86.70;;;;;;5036720;28;20168;-89
2021/10/15 00:24:12;;;;;;;19.97;13.43;;;12.80;86.60;;;;;;5036629;28;20172;-89
2021/10/15 00:26:38;;;;;;;11.53;8.83;;;12.90;86.70;;;;;;5054337;28;20207;-89
2021/10/15 00:29:05;;;;;;;16.40;11.93;;;12.90;86.10;;;;;;5036398;28;20211;-89
2021/10/15 00:31:32;;;;;;;22.63;13.20;;;12.90;86.20;;;;;;5054838;28;20524;-89
2021/10/15 00:33:57;;;;;;;20.70;14.57;;;12.90;86.30;;;;;;5054310;28;20591;-89
2021/10/15 00:36:23;;;;;;;16.27;11.37;;;12.90;86.10;;;;;;5036161;28;20176;-89
2021/10/15 00:38:49;;;;;;;14.77;12.23;;;12.90;85.70;;;;;;5054073;28;20378;-89
2021/10/15 00:41:15;;;;;;;18.57;12.30;;;13.00;85.60;;;;;;5036359;28;20179;-89
2021/10/15 00:44:05;;;;;;;21.97;12.70;;;13.00;85.60;;;;;;5036332;28;20218;-89
2021/10/15 00:46:31;;;;;;;16.43;10.30;;;13.00;85.60;;;;;;5036296;28;20180;-89
2021/10/15 00:48:57;;;;;;;22.80;12.17;;;13.00;85.50;;;;;;5053951;28;20267;-89
2021/10/15 00:51:23;;;;;;;17.93;10.60;;;13.00;85.40;;;;;;5036385;28;20275;-89
2021/10/15 00:53:50;;;;;;;17.23;12.40;;;13.00;85.60;;;;;;5036077;28;20226;-89
2021/10/15 00:56:15;;;;;;;15.23;11.33;;;12.90;85.80;;;;;;5036057;28;20179;-89
2021/10/15 00:58:41;;;;;;;19.17;10.93;;;12.90;85.80;;;;;;5036505;28;20572;-89
2021/10/15 01:01:07;;;;;;;18.93;11.27;;;12.90;85.60;;;;;;5035992;28;20527;-89
2021/10/15 01:03:37;;;;;;;18.00;10.57;;;13.00;85.50;;;;;;5035940;28;20179;-89
2021/10/15 01:06:03;;;;;;;17.00;10.57;;;12.90;85.60;;;;;;5036013;28;20168;-89
2021/10/15 01:08:29;;;;;;;18.43;11.50;;;12.90;85.40;;;;;;5035710;28;20202;-89
2021/10/15 01:10:55;;;;;;;31.00;10.70;;;13.00;85.10;;;;;;5035947;28;20566;-89
2021/10/15 01:13:21;;;;;;;16.60;10.57;;;13.00;85.10;;;;;;5036300;28;20179;-89
2021/10/15 01:15:46;;;;;;;17.53;10.97;;;13.00;85.10;;;;;;5036097;28;20183;-89
2021/10/15 01:18:15;;;;;;;19.07;12.33;;;13.00;85.20;;;;;;5053548;28;20211;-89
2021/10/15 01:20:42;;;;;;;18.37;10.50;;;12.90;85.30;;;;;;5035686;28;20230;-89
2021/10/15 01:23:08;;;;;;;12.13;8.87;;;12.90;85.30;;;;;;5035705;28;20235;-89
2021/10/15 01:25:35;;;;;;;11.60;9.23;;;12.90;85.40;;;;;;5053729;28;20169;-89
2021/10/15 01:28:02;;;;;;;14.50;10.03;;;13.00;85.20;;;;;;5035475;28;20656;-89
2021/10/15 01:30:27;;;;;;;14.27;10.73;;;13.00;85.30;;;;;;5035694;28;20222;-89
2021/10/15 01:32:53;;;;;;;16.93;12.07;;;13.10;85.40;;;;;;5035515;28;20176;-89
2021/10/15 01:35:19;;;;;;;22.47;12.60;;;13.00;85.50;;;;;;5053217;28;20164;-89
2021/10/15 01:37:45;;;;;;;20.33;12.43;;;13.00;85.40;;;;;;5035395;28;20196;-89
2021/10/15 01:40:11;;;;;;;16.87;12.27;;;13.00;85.10;;;;;;5036190;28;20227;-89
2021/10/15 01:42:53;;;;;;;16.47;12.53;;;13.00;85.40;;;;;;5035328;28;20195;-89
2021/10/15 01:45:20;;;;;;;26.07;13.03;;;13.00;85.60;;;;;;5035705;28;20255;-89
2021/10/15 01:47:45;;;;;;;15.80;11.73;;;13.00;85.90;;;;;;5035336;28;20603;-89
2021/10/15 01:50:11;;;;;;;16.00;12.07;;;12.90;85.90;;;;;;5039179;28;20199;-89
2021/10/15 01:52:37;;;;;;;24.47;13.73;;;12.90;86.10;;;;;;5057301;28;20233;-89
2021/10/15 01:55:08;;;;;;;18.50;11.43;;;12.80;86.40;;;;;;5039463;28;20266;-89
2021/10/15 01:57:34;;;;;;;19.43;13.13;;;12.90;86.30;;;;;;5057182;28;20183;-89
2021/10/15 02:00:00;;;;;;;14.93;12.20;;;12.80;86.60;;;;;;5040205;28;20683;-89
2021/10/15 02:02:26;;;;;;;21.83;13.23;;;12.90;86.20;;;;;;5057120;28;20168;-89
2021/10/15 02:04:52;;;;;;;18.17;12.07;;;12.90;86.30;;;;;;5057173;28;20297;-89
2021/10/15 02:07:18;;;;;;;23.27;12.57;;;12.90;86.10;;;;;;5040038;28;20183;-89
2021/10/15 02:09:44;;;;;;;17.17;11.27;;;12.90;86.30;;;;;;5039341;28;20191;-89
2021/10/15 02:12:10;;;;;;;21.87;13.60;;;12.90;86.50;;;;;;5039124;28;20212;-89
2021/10/15 02:14:36;;;;;;;17.03;12.80;;;12.90;86.50;;;;;;5039072;28;20206;-89
2021/10/15 02:17:02;;;;;;;17.70;12.50;;;12.90;86.30;;;;;;5057118;28;20608;-89
2021/10/15 02:19:28;;;;;;;20.57;13.17;;;12.90;86.30;;;;;;5039284;28;20283;-89
2021/10/15 02:21:54;;;;;;;17.37;13.07;;;12.80;86.60;;;;;;5056768;28;20168;-89
2021/10/15 02:24:19;;;;;;;16.70;12.83;;;12.80;86.50;;;;;;5038882;28;20172;-89
2021/10/15 02:26:45;;;;;;;22.87;13.77;;;12.90;86.60;;;;;;5039009;28;20222;-89
2021/10/15 02:29:11;;;;;;;19.27;13.30;;;12.90;86.60;;;;;;5039054;28;20293;-89
2021/10/15 02:31:36;;;;;;;16.37;12.50;;;12.90;86.60;;;;;;5039155;28;20172;-89
2021/10/15 02:34:02;;;;;;;18.83;13.23;;;12.90;86.40;;;;;;5038729;28;20259;-89
2021/10/15 02:36:28;;;;;;;22.13;13.60;;;12.90;86.20;;;;;;5038729;28;20263;-89
2021/10/15 02:38:54;;;;;;;19.67;13.17;;;12.90;86.30;;;;;;5038534;28;20192;-89
2021/10/15 02:41:19;;;;;;;21.27;12.93;;;12.90;86.30;;;;;;5056386;28;20168;-89
2021/10/15 02:43:45;;;;;;;20.53;13.90;;;12.90;86.00;;;;;;5038737;28;20180;-89
2021/10/15 02:46:15;;;;;;;20.20;13.77;;;13.00;86.00;;;;;;5038711;28;20176;-89
2021/10/15 02:48:41;;;;;;;16.57;12.90;;;12.90;85.90;;;;;;5056275;28;20199;-89
2021/10/15 02:51:07;;;;;;;16.20;11.40;;;12.90;86.00;;;;;;5038368;28;20176;-89
2021/10/15 02:53:33;;;;;;;22.07;15.23;;;13.00;86.20;;;;;;5038379;28;20187;-89
2021/10/15 02:55:58;;;;;;;18.90;13.53;;;13.00;86.10;;;;;;5038590;28;20191;-89
2021/10/15 02:58:24;;;;;;;18.83;14.87;;;13.00;85.90;;;;;;5055935;28;20204;-89
2021/10/15 03:00:52;;;;;;;19.03;14.00;;;13.00;86.10;;;;;;5055704;28;20172;-89
2021/10/15 03:03:18;;;;;;;13.07;10.23;;;13.00;86.10;;;;;;5038194;28;20663;-89
2021/10/15 03:05:44;;;;;;;24.10;16.50;;;13.00;86.10;;;;;;5038975;28;20172;-89
2021/10/15 03:08:09;;;;;;;20.90;15.00;;;13.00;86.20;;;;;;5038057;28;20180;-89
2021/10/15 03:10:35;;;;;;;21.47;15.53;;;12.90;86.40;;;;;;5056168;28;20594;-89
2021/10/15 03:13:02;;;;;;;15.80;11.47;;;12.90;86.50;;;;;;5056319;28;20204;-89
2021/10/15 03:15:28;;;;;;;20.17;17.23;;;13.00;86.30;;;;;;5037953;28;20343;-89
2021/10/15 03:17:55;;;;;;;23.23;17.10;;;13.00;86.40;;;;;;5037699;28;20294;-89
2021/10/15 03:20:21;;;;;;;20.00;15.00;;;13.00;86.50;;;;;;5055649;28;20641;-89
2021/10/15 03:22:47;;;;;;;27.77;19.63;;;13.00;86.50;;;;;;5038063;28;20667;-89
2021/10/15 03:25:12;;;;;;;22.70;13.87;;;13.00;86.50;;;;;;5037754;28;20203;-89
2021/10/15 03:27:38;;;;;;;21.50;14.97;;;13.00;86.50;;;;;;5038402;28;20208;-89
2021/10/15 03:30:05;;;;;;;26.63;18.93;;;13.00;86.70;;;;;;5056060;28;20610;-89
2021/10/15 03:32:30;;;;;;;24.37;17.93;;;13.00;86.60;;;;;;5037602;28;20180;-89
2021/10/15 03:34:56;;;;;;;28.27;18.63;;;13.00;86.50;;;;;;5038657;28;20274;-89
2021/10/15 03:37:23;;;;;;;22.10;18.13;;;13.00;86.40;;;;;;5037551;28;20343;-89
2021/10/15 03:39:50;;;;;;;22.73;18.43;;;13.00;86.70;;;;;;5055228;28;20196;-89
2021/10/15 03:42:16;;;;;;;25.90;16.10;;;13.00;86.80;;;;;;5037409;28;20180;-89
2021/10/15 03:44:41;;;;;;;23.57;18.10;;;13.00;86.50;;;;;;5055837;28;20529;-89
2021/10/15 03:47:07;;;;;;;25.00;16.17;;;13.00;86.50;;;;;;5037961;28;20175;-89
2021/10/15 03:49:32;;;;;;;25.50;16.87;;;13.00;86.70;;;;;;5037636;28;20287;-89
2021/10/15 03:51:58;;;;;;;24.13;16.30;;;13.00;86.30;;;;;;5037383;28;20538;-89
2021/10/15 03:54:24;;;;;;;26.60;17.93;;;13.10;86.20;;;;;;5037375;28;20641;-89
2021/10/15 03:56:50;;;;;;;21.83;16.67;;;13.10;86.20;;;;;;5037580;28;20267;-89
2021/10/15 03:59:15;;;;;;;25.67;15.83;;;13.00;86.30;;;;;;5037439;28;20310;-89
2021/10/15 04:01:41;;;;;;;27.67;16.73;;;13.00;86.50;;;;;;5037111;28;20176;-89
2021/10/15 04:04:07;;;;;;;24.33;17.20;;;13.00;86.40;;;;;;5036988;28;20176;-89
2021/10/15 04:06:33;;;;;;;28.97;17.00;;;13.00;86.40;;;;;;5038170;28;20176;-89
2021/10/15 04:08:58;;;;;;;21.43;15.13;;;13.00;86.20;;;;;;5036890;28;20195;-89
2021/10/15 04:11:24;;;;;;;21.23;16.07;;;13.00;86.10;;;;;;5054187;28;20575;-89
2021/10/15 04:13:49;;;;;;;22.37;16.10;;;13.00;86.00;;;;;;5037693;28;20180;-89
2021/10/15 04:16:15;;;;;;;20.67;14.30;;;13.10;85.70;;;;;;5036881;28;20184;-89
2021/10/15 04:18:41;;;;;;;21.57;15.43;;;13.10;85.90;;;;;;5036839;28;20207;-89
2021/10/15 04:21:06;;;;;;;15.57;11.60;;;13.00;85.60;;;;;;5036819;28;20279;-89
2021/10/15 04:23:32;;;;;;;20.60;15.27;;;13.10;85.10;;;;;;5036738;28;20202;-89
2021/10/15 04:25:58;;;;;;;21.13;14.47;;;13.10;85.60;;;;;;5036694;28;20226;-89
2021/10/15 04:28:23;;;;;;;23.33;13.90;;;13.00;85.40;;;;;;5054618;28;20207;-89
2021/10/15 04:30:49;;;;;;;21.63;15.10;;;13.10;84.70;;;;;;5054703;28;20176;-89
2021/10/15 04:33:15;;;;;;;21.47;13.73;;;13.10;85.10;;;;;;5036475;28;20279;-89
2021/10/15 04:35:41;;;;;;;20.03;12.33;;;13.10;85.00;;;;;;5054855;28;20176;-89
2021/10/15 04:38:06;;;;;;;23.13;14.80;;;13.10;84.80;;;;;;5054001;28;20196;-89
2021/10/15 04:40:32;;;;;;;20.30;12.17;;;13.10;85.20;;;;;;5036392;28;20212;-89
2021/10/15 04:42:58;;;;;;;22.13;14.83;;;13.10;85.10;;;;;;5036304;28;20562;-89
2021/10/15 04:45:23;;;;;;;18.43;13.10;;;13.10;84.90;;;;;;5036516;28;20183;-89
2021/10/15 04:47:49;;;;;;;19.03;13.10;;;13.10;85.10;;;;;;5036295;28;20176;-89
2021/10/15 04:50:15;;;;;;;24.20;13.57;;;13.00;85.30;;;;;;5036137;28;20749;-89
2021/10/15 04:52:41;;;;;;;21.27;14.30;;;13.00;85.40;;;;;;5036386;28;20183;-89
2021/10/15 04:55:07;;;;;;;19.07;14.27;;;13.10;85.50;;;;;;5036138;28;20230;-89
2021/10/15 04:57:33;;;;;;;16.57;12.17;;;13.00;85.20;;;;;;5036206;28;20204;-89
2021/10/15 04:59:59;;;;;;;23.80;14.40;;;13.10;85.00;;;;;;5053962;28;20589;-89
2021/10/15 05:02:25;;;;;;;19.63;13.23;;;13.10;85.30;;;;;;5036183;28;20180;-89
2021/10/15 05:04:50;;;;;;;24.87;15.30;;;13.00;85.60;;;;;;5036099;28;20183;-89
2021/10/15 05:07:16;;;;;;;21.30;15.30;;;13.00;85.50;;;;;;5035907;28;20233;-89
2021/10/15 05:09:42;;;;;;;23.60;16.90;;;13.00;85.60;;;;;;5053872;28;20199;-89
2021/10/15 05:12:14;;;;;;;22.27;14.30;;;13.00;85.40;;;;;;5035878;28;20194;-89
2021/10/15 05:14:42;;;;;;;21.10;16.43;;;13.00;85.80;;;;;;5035839;28;20260;-89
2021/10/15 05:17:08;;;;;;;22.43;16.60;;;13.00;86.20;;;;;;5053821;28;20196;-89
2021/10/15 05:19:34;;;;;;;20.47;13.13;;;12.90;86.30;;;;;;5035679;28;20192;-89
2021/10/15 05:22:00;;;;;;;27.97;16.97;;;12.90;86.20;;;;;;5035547;28;20207;-89
2021/10/15 05:24:26;;;;;;;20.37;15.53;;;12.80;86.80;;;;;;5035607;28;20560;-89
2021/10/15 05:26:52;;;;;;;27.13;18.20;;;12.80;87.50;;;;;;5035532;28;20168;-89
2021/10/15 05:29:17;;;;;;;23.57;19.27;;;12.80;87.90;;;;;;5035622;28;20208;-89
2021/10/15 05:31:43;;;;;;;25.17;18.83;;;12.80;87.60;;;;;;5053625;28;20179;-88
2021/10/15 05:34:09;;;;;;;28.77;20.30;;;12.70;88.30;;;;;;5035591;28;20270;-88
2021/10/15 05:36:35;;;;;;;28.07;19.57;;;12.70;88.60;;;;;;5035837;28;20263;-89
2021/10/15 05:39:01;;;;;;;29.57;20.63;;;12.70;88.80;;;;;;5035553;28;20782;-89
2021/10/15 05:41:27;;;;;;;29.33;20.57;;;12.60;88.90;;;;;;5035956;28;20225;-89
2021/10/15 05:43:52;;;;;;;32.77;21.60;;;12.60;89.00;;;;;;5035634;28;20172;-90
2021/10/15 05:46:18;;;;;;;33.67;21.23;;;12.60;89.40;;;;;;5035683;28;20554;-90
2021/10/15 05:48:44;;;;;;;21.67;16.80;;;12.50;89.70;;;;;;5035730;28;20192;-89
2021/10/15 05:51:09;;;;;;;25.27;18.33;;;12.50;90.00;;;;;;5036149;28;20187;-89
2021/10/15 05:53:35;;;;;;;27.87;21.47;;;12.50;89.90;;;;;;5053733;28;20200;-90
2021/10/15 05:56:24;;;;;;;29.50;21.93;;;12.50;90.00;;;;;;5036626;28;20180;-89
2021/10/15 05:58:53;;;;;;;28.43;22.80;;;12.50;90.30;;;;;;5035653;28;20699;-89
2021/10/15 06:01:22;;;;;;;26.53;21.07;;;12.40;90.70;;;;;;5036136;28;20173;-89
2021/10/15 06:14:48;;;;;;;7.53;3.03;;;12.20;90.80;;;;;;5055187;28;20186;-89
2021/10/15 06:17:17;;;;;;;13.53;2.53;;;11.90;90.30;;;;;;5036372;28;20208;-89
2021/10/15 06:19:52;;;;;;;5.63;1.90;;;11.80;90.40;;;;;;5036596;28;20203;-89
2021/10/15 06:22:26;;;;;;;5.57;1.80;;;11.70;90.60;;;;;;5036601;28;20232;-89
2021/10/15 06:24:53;;;;;;;6.70;1.80;;;11.60;90.60;;;;;;5053641;28;20173;-89
2021/10/15 06:27:21;;;;;;;7.00;1.40;;;11.70;90.80;;;;;;5035870;28;20160;-90
2021/10/15 06:29:48;;;;;;;4.00;1.47;;;11.70;90.80;;;;;;5035512;28;20215;-90
2021/10/15 06:32:15;;;;;;;4.10;1.40;;;11.70;90.70;;;;;;5036253;28;20548;-89
2021/10/15 06:34:41;;;;;;;4.43;1.67;;;11.50;90.70;;;;;;5036795;28;20184;-89
2021/10/15 06:37:07;;;;;;;6.23;1.37;;;11.40;90.90;;;;;;5040201;28;20287;-90
2021/10/15 06:39:34;;;;;;;6.07;1.70;;;11.30;91.00;;;;;;5039967;28;20192;-90
2021/10/15 06:42:00;;;;;;;4.97;1.43;;;11.30;90.90;;;;;;5057936;28;20187;-90
2021/10/15 06:44:26;;;;;;;8.03;1.40;;;11.30;90.90;;;;;;5039966;28;20594;-90
2021/10/15 06:46:52;;;;;;;8.70;1.40;;;11.20;91.00;;;;;;5058335;28;20172;-90
2021/10/15 06:49:19;;;;;;;4.77;1.73;;;11.20;91.00;;;;;;5039547;28;20196;-90
2021/10/15 06:51:46;;;;;;;6.23;1.43;;;11.20;91.00;;;;;;5040097;28;20206;-90
2021/10/15 06:54:12;;;;;;;6.03;1.67;;;11.10;90.90;;;;;;5039509;28;20168;-90
2021/10/15 06:56:38;;;;;;;4.50;1.80;;;11.10;90.90;;;;;;5038957;28;20178;-89
2021/10/15 06:59:04;;;;;;;11.87;1.73;;;11.20;91.10;;;;;;5039320;28;20295;-89
2021/10/15 07:01:33;;;;;;;6.83;1.30;;;11.10;90.90;;;;;;5057002;28;20176;-90
2021/10/15 07:03:59;;;;;;;10.13;1.67;;;11.20;90.90;;;;;;5038919;28;20187;-90
2021/10/15 07:06:25;;;;;;;8.30;1.67;;;11.10;91.00;;;;;;5038847;28;20176;-90
2021/10/15 07:08:51;;;;;;;8.67;1.70;;;11.10;91.00;;;;;;5038598;28;20281;-90
2021/10/15 07:11:17;;;;;;;7.50;1.83;;;11.10;91.10;;;;;;5038444;28;20213;-89
2021/10/15 07:13:43;;;;;;;5.90;1.43;;;11.10;91.00;;;;;;5038411;28;20168;-89
2021/10/15 07:16:12;;;;;;;5.80;1.40;;;11.00;91.00;;;;;;5038220;28;20179;-89
2021/10/15 07:18:38;;;;;;;6.10;1.60;;;10.90;90.60;;;;;;5038019;28;20298;-89
2021/10/15 07:21:05;;;;;;;4.00;1.27;;;10.80;89.90;;;;;;5038042;28;20263;-89
2021/10/15 07:23:31;;;;;;;5.47;1.20;;;10.80;89.90;;;;;;5038019;28;20222;-89
2021/10/15 07:25:57;;;;;;;5.53;1.40;;;10.80;89.60;;;;;;5038006;28;20179;-89
2021/10/15 07:28:23;;;;;;;10.03;1.70;;;10.70;89.70;;;;;;5037779;28;20214;-89
2021/10/15 07:30:49;;;;;;;6.83;2.20;;;10.80;89.90;;;;;;5038008;28;20180;-90
2021/10/15 07:33:16;;;;;;;5.17;1.30;;;10.80;90.00;;;;;;5055698;28;20180;-89
2021/10/15 07:35:42;;;;;;;7.73;1.53;;;10.80;89.60;;;;;;5038043;28;20207;-89
2021/10/15 07:38:08;;;;;;;6.73;1.57;;;10.80;89.60;;;;;;5055591;28;20235;-90
2021/10/15 07:40:34;;;;;;;8.43;1.60;;;10.80;89.80;;;;;;5037844;28;20180;-89
2021/10/15 07:42:59;;;;;;;12.67;1.60;;;10.60;89.90;;;;;;5037721;28;20168;-89
2021/10/15 07:45:26;;;;;;;8.37;1.80;;;10.70;90.00;;;;;;5037617;28;20214;-90
2021/10/15 07:47:52;;;;;;;7.33;1.70;;;10.60;90.00;;;;;;5037578;28;20179;-90
2021/10/15 07:50:18;;;;;;;10.83;1.80;;;10.70;90.00;;;;;;5037998;28;20263;-90
2021/10/15 07:52:44;;;;;;;8.70;1.90;;;10.60;90.00;;;;;;5055310;28;20176;-90
2021/10/15 07:55:10;;;;;;;10.73;2.07;;;10.70;90.00;;;;;;5037891;28;20172;-90
2021/10/15 07:57:37;;;;;;;9.70;1.50;;;10.70;90.10;;;;;;5038205;28;20653;-90
2021/10/15 08:00:06;;;;;;;8.90;1.97;;;10.70;90.20;;;;;;5037741;28;20561;-91
2021/10/15 08:02:31;;;;;;;10.10;2.00;;;10.70;90.20;;;;;;5037331;28;20176;-91
2021/10/15 08:04:57;;;;;;;10.03;2.13;;;10.60;90.30;;;;;;5037807;28;20183;-91
2021/10/15 08:07:23;;;;;;;10.20;1.73;;;10.60;90.30;;;;;;5037318;28;20180;-91
2021/10/15 08:09:49;;;;;;;10.53;2.17;;;10.60;90.70;;;;;;5055283;28;20236;-90
2021/10/15 08:12:15;;;;;;;10.77;1.93;;;10.50;91.10;;;;;;5037246;28;20262;-90
2021/10/15 08:14:41;;;;;;;12.23;1.83;;;10.50;91.30;;;;;;5055014;28;20207;-90
2021/10/15 08:17:06;;;;;;;8.40;1.90;;;10.50;91.50;;;;;;5037153;28;20245;-90
2021/10/15 08:19:32;;;;;;;8.93;1.93;;;10.50;91.60;;;;;;5055284;28;20198;-91
2021/10/15 08:21:58;;;;;;;9.13;2.10;;;10.40;91.70;;;;;;5055139;28;20168;-91
2021/10/15 08:24:24;;;;;;;8.17;2.30;;;10.50;91.90;;;;;;5036802;28;20244;-91
2021/10/15 08:26:51;;;;;;;16.27;1.90;;;10.50;92.00;;;;;;5036611;28;20608;-92
2021/10/15 08:29:18;;;;;;;9.57;1.97;;;10.30;92.10;;;;;;5034155;28;20706;-91
2021/10/15 08:31:44;;;;;;;9.00;1.97;;;10.40;92.10;;;;;;5020649;28;20176;-91
2021/10/15 08:34:10;;;;;;;7.70;1.83;;;10.30;92.20;;;;;;5036842;28;20547;-90
2021/10/15 08:36:40;;;;;;;6.83;2.20;;;10.40;92.20;;;;;;5054877;28;20175;-91
2021/10/15 08:39:06;;;;;;;13.17;2.10;;;10.40;92.20;;;;;;5036925;28;20211;-91
2021/10/15 08:41:32;;;;;;;8.50;2.47;;;10.50;92.50;;;;;;5036955;28;20647;-92
2021/10/15 08:43:59;;;;;;;13.40;2.40;;;10.50;92.40;;;;;;5036728;28;20204;-91
2021/10/15 08:46:25;;;;;;;11.83;2.10;;;10.50;92.40;;;;;;5036526;28;20194;-91
2021/10/15 08:48:52;;;;;;;11.93;2.07;;;10.50;92.30;;;;;;5036547;28;20196;-92
2021/10/15 08:51:23;;;;;;;10.83;2.20;;;10.50;92.30;;;;;;5036763;28;20570;-92
2021/10/15 08:53:55;;;;;;;9.70;2.10;;;10.50;92.50;;;;;;5036526;28;20179;-91
2021/10/15 08:56:23;;;;;;;15.33;2.60;;;10.60;92.40;;;;;;5036686;28;20179;-92
2021/10/15 08:59:00;;;;;;;14.60;1.87;;;10.60;92.50;;;;;;5035502;28;20208;-90
2021/10/15 09:01:27;;;;;;;14.30;3.03;;;10.60;92.50;;;;;;5036270;28;20168;-90
2021/10/15 09:04:07;;;;;;;16.87;2.47;;;10.70;92.50;;;;;;5036074;28;20206;-90
2021/10/15 09:06:40;;;;;;;13.93;2.13;;;10.70;92.50;;;;;;5036898;28;20164;-90
2021/10/15 09:09:07;;;;;;;12.97;2.20;;;10.70;92.50;;;;;;5035949;28;20207;-89
2021/10/15 09:11:40;;;;;;;15.50;2.43;;;10.70;92.20;;;;;;5035803;28;20616;-89
2021/10/15 09:14:10;;;;;;;14.40;2.60;;;10.70;92.10;;;;;;5036178;28;20176;-90
2021/10/15 09:17:03;;;;;;;12.63;2.03;;;10.70;92.00;;;;;;5035916;28;20176;-90
2021/10/15 09:19:35;;;;;;;14.53;2.50;;;10.70;91.70;;;;;;5035662;28;20203;-89
2021/10/15 09:22:26;;;;;;;13.67;2.60;;;10.80;91.40;;;;;;5035701;28;20180;-90
2021/10/15 09:25:05;;;;;;;11.63;2.33;;;10.80;90.70;;;;;;5035668;28;20605;-90
2021/10/15 09:27:38;;;;;;;14.73;2.37;;;10.80;90.70;;;;;;5035722;28;20175;-90
2021/10/15 09:30:05;;;;;;;14.83;2.83;;;10.80;90.70;;;;;;5035501;28;20647;-89
2021/10/15 09:32:35;;;;;;;17.57;2.57;;;10.80;90.70;;;;;;5036077;28;20176;-89
2021/10/15 09:35:01;;;;;;;15.97;2.80;;;10.90;90.80;;;;;;5035572;28;20179;-90
2021/10/15 09:37:30;;;;;;;24.23;3.23;;;11.20;91.20;;;;;;5035474;28;20200;-90
2021/10/15 09:40:25;;;;;;;12.87;2.43;;;11.40;91.30;;;;;;5084022;23;20315;-87
2021/10/15 09:42:56;;;;;;;21.13;2.70;;;11.70;91.50;;;;;;5034134;28;20157;-86
2021/10/15 09:45:34;;;;;;;15.53;3.10;;;11.90;91.30;;;;;;5033524;28;20157;-86
2021/10/15 09:48:03;;;;;;;14.57;3.27;;;12.10;90.90;;;;;;5015478;28;20653;-87
2021/10/15 09:50:31;;;;;;;11.77;2.53;;;12.10;89.60;;;;;;5015403;28;20580;-88
2021/10/15 09:53:02;;;;;;;17.03;3.03;;;12.30;88.60;;;;;;5032911;28;20265;-88
2021/10/15 09:55:39;;;;;;;14.43;2.83;;;12.30;87.30;;;;;;5015349;28;20255;-87
2021/10/15 09:58:17;;;;;;;18.77;3.83;;;12.40;86.60;;;;;;5033231;28;20196;-87
2021/10/15 10:00:43;;;;;;;18.80;3.37;;;12.60;86.50;;;;;;5015256;28;20192;-87
2021/10/15 10:03:09;;;;;;;20.40;3.37;;;12.60;85.20;;;;;;5033077;28;20175;-87
2021/10/15 10:05:36;;;;;;;14.77;2.80;;;12.60;84.30;;;;;;5015241;28;20177;-87
2021/10/15 10:08:02;;;;;;;16.70;3.13;;;12.70;84.70;;;;;;5033399;28;20259;-87
2021/10/15 10:10:33;;;;;;;14.57;2.83;;;12.90;85.10;;;;;;5017699;28;20196;-87
2021/10/15 10:12:59;;;;;;;21.03;4.00;;;12.90;82.30;;;;;;5019242;28;20173;-87
2021/10/15 10:15:31;;;;;;;13.03;2.70;;;13.00;84.20;;;;;;5037198;28;20656;-87
2021/10/15 10:20:48;;;;;;;16.27;3.10;;;13.00;83.20;;;;;;5037153;28;20192;-87
2021/10/15 10:23:29;;;;;;;23.07;3.23;;;13.20;84.00;;;;;;5018856;28;20263;-87
2021/10/15 10:26:04;;;;;;;16.67;3.43;;;13.30;83.60;;;;;;5018814;28;20173;-87
2021/10/15 10:28:31;;;;;;;11.90;2.77;;;13.40;83.00;;;;;;5036837;28;20187;-87
2021/10/15 10:31:05;;;;;;;15.37;3.23;;;13.60;82.50;;;;;;5018704;28;20204;-87
2021/10/15 10:34:08;;;;;;;20.13;3.30;;;13.20;82.00;;;;;;5036507;28;20247;-86
2021/10/15 10:36:37;;;;;;;15.20;3.07;;;12.90;83.00;;;;;;4902246;29;20200;-87
2021/10/15 10:39:21;;;;;;;17.70;3.80;;;12.70;81.80;;;;;;5015800;28;20220;-87
2021/10/15 10:42:18;;;;;;;19.30;3.87;;;12.90;81.30;;;;;;5036404;28;20176;-87
2021/10/15 10:44:50;;;;;;;20.17;4.10;;;13.20;80.90;;;;;;5018448;28;20181;-87
2021/10/15 10:47:25;;;;;;;19.40;2.97;;;13.20;79.20;;;;;;5036360;28;20173;-88
2021/10/15 10:50:06;;;;;;;18.67;4.03;;;13.40;80.20;;;;;;5036809;28;20196;-86
2021/10/15 10:53:01;;;;;;;15.30;2.83;;;13.60;80.10;;;;;;5036435;28;20517;-86
2021/10/15 10:55:54;;;;;;;24.63;4.17;;;13.50;78.90;;;;;;5018229;28;20608;-86
2021/10/15 10:58:34;;;;;;;18.97;3.47;;;13.70;78.70;;;;;;5018245;28;20204;-86
2021/10/15 11:01:25;;;;;;;16.70;3.10;;;13.80;78.40;;;;;;5035780;28;20192;-86
2021/10/15 11:03:51;;;;;;;18.60;2.90;;;13.80;76.80;;;;;;5035839;28;20172;-86
2021/10/15 11:06:17;;;;;;;16.27;2.37;;;13.90;76.70;;;;;;5018106;28;20187;-86
2021/10/15 11:08:43;;;;;;;9.70;2.50;;;14.10;76.00;;;;;;5035912;28;20169;-86
2021/10/15 11:11:23;;;;;;;14.43;2.73;;;14.00;73.30;;;;;;5035801;28;20723;-86
2021/10/15 11:13:49;;;;;;;15.30;2.87;;;14.00;74.70;;;;;;5018006;28;20645;-86
2021/10/15 11:16:19;;;;;;;9.53;2.10;;;14.00;72.70;;;;;;5017985;28;20181;-86
2021/10/15 11:18:45;;;;;;;15.03;2.27;;;14.00;73.20;;;;;;5017794;28;20204;-86
2021/10/15 11:21:12;;;;;;;8.60;2.00;;;14.10;73.50;;;;;;5035179;28;20204;-86
2021/10/15 11:23:39;;;;;;;8.90;2.27;;;14.20;73.30;;;;;;5035706;28;20165;-86
2021/10/15 11:26:06;;;;;;;9.97;2.20;;;14.20;74.50;;;;;;5035486;28;20655;-86
2021/10/15 11:28:31;;;;;;;7.07;1.93;;;14.20;73.60;;;;;;5035574;28;20191;-86
2021/10/15 11:30:58;;;;;;;14.80;2.20;;;14.50;73.20;;;;;;5035345;28;20192;-86
2021/10/15 11:33:25;;;;;;;4.43;1.27;;;14.60;72.20;;;;;;5035375;28;20176;-86
2021/10/15 11:35:52;;;;;;;11.27;1.97;;;14.40;69.30;;;;;;5017516;28;20720;-85
2021/10/15 11:38:27;;;;;;;6.70;1.73;;;14.20;69.40;;;;;;5035470;28;20279;-86
2021/10/15 11:40:57;;;;;;;7.33;1.80;;;14.10;69.60;;;;;;5035853;28;20269;-86
2021/10/15 11:43:33;;;;;;;6.53;1.50;;;14.20;69.70;;;;;;5017460;28;20263;-86
2021/10/15 11:46:08;;;;;;;8.93;2.13;;;14.20;68.40;;;;;;5017328;28;20172;-86
2021/10/15 11:48:45;;;;;;;10.40;1.80;;;14.20;67.00;;;;;;5017413;28;20230;-86
2021/10/15 11:51:25;;;;;;;9.13;2.43;;;14.50;68.80;;;;;;5017235;28;20587;-86
2021/10/15 11:53:53;;;;;;;11.07;2.10;;;14.30;68.60;;;;;;5017530;28;20176;-86
2021/10/15 11:56:22;;;;;;;11.10;1.90;;;14.40;70.90;;;;;;5017256;28;20204;-86
2021/10/15 11:58:49;;;;;;;11.03;1.73;;;14.60;68.00;;;;;;5017075;28;20208;-86
2021/10/15 12:01:17;;;;;;;12.57;2.90;;;14.50;68.90;;;;;;5017066;28;20176;-86
2021/10/15 12:03:44;;;;;;;11.50;2.57;;;14.60;68.70;;;;;;5034906;28;20173;-86
2021/10/15 12:06:12;;;;;;;13.50;2.47;;;14.50;69.60;;;;;;5016963;28;20188;-86
2021/10/15 12:08:39;;;;;;;11.77;2.50;;;14.60;69.40;;;;;;5016986;28;20177;-86
2021/10/15 12:11:15;;;;;;;15.43;3.33;;;14.70;69.60;;;;;;5016809;28;20204;-86
2021/10/15 12:13:41;;;;;;;13.20;3.03;;;14.80;69.30;;;;;;5034732;28;20229;-86
2021/10/15 12:16:23;;;;;;;13.93;2.40;;;14.70;68.80;;;;;;5016847;28;20180;-86
2021/10/15 12:19:17;;;;;;;15.30;3.00;;;14.90;69.00;;;;;;5016692;28;20236;-86
2021/10/15 12:21:46;;;;;;;10.63;2.60;;;14.70;69.90;;;;;;5030991;28;20188;-86
2021/10/15 12:24:23;;;;;;;15.57;2.73;;;14.20;69.60;;;;;;5016681;28;20185;-86
2021/10/15 12:27:05;;;;;;;17.17;2.43;;;14.60;70.40;;;;;;5016608;28;20219;-86
2021/10/15 12:29:32;;;;;;;18.83;2.63;;;14.40;69.70;;;;;;5034096;28;20246;-86
2021/10/15 12:32:16;;;;;;;11.57;2.90;;;14.50;69.30;;;;;;5015758;28;20181;-86
2021/10/15 12:35:16;;;;;;;11.87;2.50;;;14.60;70.30;;;;;;5016390;28;20219;-86
2021/10/15 12:37:51;;;;;;;17.13;3.53;;;14.60;69.00;;;;;;5034073;28;20193;-86
2021/10/15 12:40:33;;;;;;;22.77;3.70;;;14.80;70.50;;;;;;5016152;28;20215;-86
2021/10/15 12:43:02;;;;;;;16.90;2.77;;;14.70;71.40;;;;;;5016323;28;20177;-86
2021/10/15 12:45:38;;;;;;;13.07;2.70;;;14.70;70.10;;;;;;5016174;28;20696;-86
2021/10/15 12:48:14;;;;;;;12.50;2.53;;;14.80;71.30;;;;;;5034006;28;20196;-86
2021/10/15 12:50:42;;;;;;;16.23;3.73;;;14.60;71.10;;;;;;5016161;28;20672;-86
2021/10/15 12:53:17;;;;;;;15.50;2.77;;;14.30;71.80;;;;;;5016099;28;20180;-86
2021/10/15 12:55:55;;;;;;;10.67;2.60;;;14.60;73.00;;;;;;5016105;28;20710;-86